Time;durP1;ratioP1;P1;durP2;ratioP2;P2;SDS_P1;SDS_P2;PMS_P1;PMS_P2;Temp;Humidity;BMP_temperature;BMP_pressure;BME280_temperature;BME280_humidity;BME280_pressure;Samples;Min_cycle;Max_cycle;Signal;HPM_P1;HPM_P2
2023/08/17 00:02:14;;;;;;;5.28;2.50;;;;;;;18.22;82.71;101874.28;5027322;28;20098;-69
2023/08/17 00:04:39;;;;;;;6.65;2.80;;;;;;;18.24;81.89;101875.03;5039632;28;20037;-66
2023/08/17 00:07:05;;;;;;;5.30;2.40;;;;;;;18.23;82.89;101870.50;5029334;28;20037;-66
2023/08/17 00:09:31;;;;;;;6.47;2.78;;;;;;;18.19;81.66;101875.44;5028041;28;20045;-66
2023/08/17 00:11:57;;;;;;;5.38;3.03;;;;;;;18.14;83.04;101868.56;5028499;28;20561;-66
2023/08/17 00:14:22;;;;;;;3.33;2.60;;;;;;;18.09;82.70;101857.97;5028362;28;20037;-67
2023/08/17 00:16:50;;;;;;;4.63;2.60;;;;;;;18.05;82.55;101856.50;5028311;28;20036;-65
2023/08/17 00:19:15;;;;;;;5.30;2.58;;;;;;;18.03;83.42;101867.63;5028076;28;20068;-66
2023/08/17 00:21:40;;;;;;;8.25;2.65;;;;;;;17.99;83.15;101857.91;5027665;28;20041;-70
2023/08/17 00:24:06;;;;;;;4.88;2.60;;;;;;;17.95;83.66;101864.72;5027582;28;20116;-66
2023/08/17 00:26:31;;;;;;;6.28;2.78;;;;;;;17.94;83.91;101856.56;5007559;28;20080;-66
2023/08/17 00:28:57;;;;;;;6.28;2.78;;;;;;;17.95;83.16;101848.19;5023871;28;20512;-66
2023/08/17 00:31:22;;;;;;;3.30;2.22;;;;;;;17.92;83.34;101842.94;5026953;28;20034;-67
2023/08/17 00:33:48;;;;;;;4.88;3.13;;;;;;;17.93;83.83;101860.31;5025150;28;20137;-66
2023/08/17 00:36:13;;;;;;;5.75;2.63;;;;;;;17.90;83.58;101855.06;5007322;28;20037;-66
2023/08/17 00:38:38;;;;;;;8.10;2.75;;;;;;;17.91;83.74;101851.34;5012850;28;20473;-66
2023/08/17 00:41:04;;;;;;;6.78;2.83;;;;;;;17.91;82.96;101852.22;5028677;28;20536;-67
2023/08/17 00:43:29;;;;;;;6.90;2.80;;;;;;;17.93;83.13;101858.44;5026419;28;20547;-66
2023/08/17 00:45:55;;;;;;;6.95;3.03;;;;;;;17.91;83.12;101854.09;5028673;28;20319;-67
2023/08/17 00:48:20;;;;;;;6.32;2.45;;;;;;;17.92;83.15;101859.47;5015186;28;20385;-66
2023/08/17 00:50:50;;;;;;;6.75;2.70;;;;;;;17.91;83.88;101857.72;5008921;28;20061;-66
2023/08/17 00:53:16;;;;;;;4.13;2.50;;;;;;;17.88;84.77;101851.59;4989945;28;20117;-68
2023/08/17 00:55:42;;;;;;;5.22;2.60;;;;;;;17.84;83.29;101857.38;5009086;28;20034;-67
2023/08/17 00:58:08;;;;;;;8.25;2.78;;;;;;;17.82;83.71;101856.63;5016341;28;20127;-66
2023/08/17 01:00:33;;;;;;;5.20;2.63;;;;;;;17.81;83.76;101860.41;5010549;28;20127;-67
2023/08/17 01:02:59;;;;;;;6.13;2.67;;;;;;;17.83;83.77;101866.63;5014951;28;20041;-67
2023/08/17 01:05:24;;;;;;;6.25;3.20;;;;;;;17.84;84.18;101871.13;5022528;28;20139;-66
2023/08/17 01:07:50;;;;;;;4.38;2.40;;;;;;;17.86;83.53;101873.78;5028032;28;20437;-69
2023/08/17 01:10:16;;;;;;;6.43;2.45;;;;;;;17.84;84.28;101865.63;5027062;28;20095;-67
2023/08/17 01:13:05;;;;;;;6.57;2.65;;;;;;;17.82;83.54;101867.66;5022785;28;20041;-67
2023/08/17 01:15:40;;;;;;;4.47;2.40;;;;;;;17.84;83.77;101870.25;5028450;28;20853;-67
2023/08/17 01:18:24;;;;;;;5.05;2.47;;;;;;;17.85;83.28;101867.34;5009231;28;20061;-66
2023/08/17 01:20:52;;;;;;;7.00;2.70;;;;;;;17.79;84.60;101864.28;5008287;28;20030;-66
2023/08/17 01:23:18;;;;;;;7.57;3.00;;;;;;;17.71;85.27;101861.28;5011272;28;20041;-68
2023/08/17 01:25:43;;;;;;;7.47;2.83;;;;;;;17.67;84.85;101852.41;5027095;28;20041;-67
2023/08/17 01:28:09;;;;;;;6.07;2.63;;;;;;;17.64;84.62;101855.44;5025500;28;20041;-66
2023/08/17 01:31:05;;;;;;;5.97;2.20;;;;;;;17.63;83.81;101861.09;5027611;28;20087;-66
2023/08/17 01:33:40;;;;;;;6.05;2.78;;;;;;;17.57;85.26;101855.09;5027499;28;20037;-66
2023/08/17 01:36:16;;;;;;;8.48;2.75;;;;;;;17.56;85.35;101855.22;5016521;28;20048;-66
2023/08/17 01:38:43;;;;;;;4.50;2.60;;;;;;;17.52;85.37;101843.59;5026507;28;20044;-66
2023/08/17 01:41:15;;;;;;;5.45;2.70;;;;;;;17.47;86.07;101847.75;5025770;28;20114;-66
2023/08/17 01:43:45;;;;;;;;;;;;;;;17.50;84.61;101848.38;5012914;28;20034;-67
2023/08/17 01:46:15;;;;;;;6.30;3.17;;;;;;;17.42;85.83;101841.78;5005804;28;19999;-67
2023/08/17 01:48:41;;;;;;;10.25;3.13;;;;;;;17.39;85.92;101840.16;5008636;28;20065;-69
2023/08/17 01:51:07;;;;;;;4.38;3.05;;;;;;;17.41;86.19;101845.53;5026621;28;20033;-66
2023/08/17 01:53:32;;;;;;;5.25;2.70;;;;;;;17.39;86.51;101844.78;5027729;28;20037;-66
2023/08/17 01:55:58;;;;;;;7.35;2.80;;;;;;;17.37;86.74;101842.16;5026503;28;20033;-66
2023/08/17 01:58:23;;;;;;;4.30;2.70;;;;;;;17.37;86.69;101842.16;5017590;28;20062;-66
2023/08/17 02:00:48;;;;;;;4.75;2.80;;;;;;;17.35;87.61;101849.69;5025961;28;20131;-66
2023/08/17 02:03:13;;;;;;;4.75;2.33;;;;;;;17.34;86.85;101845.16;5024478;28;20391;-66
2023/08/17 02:05:44;;;;;;;6.90;3.10;;;;;;;17.33;86.64;101846.19;5025187;28;20033;-65
2023/08/17 02:08:12;;;;;;;6.57;3.17;;;;;;;17.32;87.73;101845.31;5024433;28;20041;-65
2023/08/17 02:10:37;;;;;;;8.50;3.45;;;;;;;17.30;88.29;101846.47;4990519;28;20420;-66
2023/08/17 02:13:03;;;;;;;7.57;2.83;;;;;;;17.27;87.49;101847.59;5007353;28;20481;-66
2023/08/17 02:15:28;;;;;;;5.70;2.70;;;;;;;17.25;87.29;101846.84;5005928;28;20030;-66
2023/08/17 02:17:54;;;;;;;6.18;2.90;;;;;;;17.23;88.35;101848.84;5022830;28;20048;-66
2023/08/17 02:20:19;;;;;;;4.97;2.58;;;;;;;17.22;87.21;101852.59;5025216;28;20034;-66
2023/08/17 02:22:44;;;;;;;5.88;3.00;;;;;;;17.24;87.80;101853.34;5026989;28;20049;-67
2023/08/17 02:25:10;;;;;;;6.38;2.67;;;;;;;17.22;87.39;101846.22;5027982;28;20022;-66
2023/08/17 02:27:35;;;;;;;6.35;2.70;;;;;;;17.20;87.27;101857.34;5012156;28;20092;-66
2023/08/17 02:30:01;;;;;;;3.97;2.67;;;;;;;17.17;87.35;101851.25;5007321;28;20037;-66
2023/08/17 02:32:27;;;;;;;4.95;3.00;;;;;;;17.16;87.30;101846.72;5005621;28;20080;-67
2023/08/17 02:34:54;;;;;;;8.75;2.90;;;;;;;17.10;88.18;101850.88;5007385;28;20125;-70
2023/08/17 02:37:19;;;;;;;6.55;2.80;;;;;;;17.05;88.25;101842.16;5007318;28;20067;-66
2023/08/17 02:39:44;;;;;;;6.75;3.28;;;;;;;17.01;88.15;101848.91;4990181;28;20128;-65
2023/08/17 02:42:10;;;;;;;7.65;3.55;;;;;;;17.00;88.30;101847.16;5019117;28;20464;-66
2023/08/17 02:44:36;;;;;;;9.40;2.90;;;;;;;16.94;88.75;101843.06;5007468;28;20029;-67
2023/08/17 02:47:01;;;;;;;9.05;3.80;;;;;;;16.92;89.49;101831.28;5011754;28;20028;-65
2023/08/17 02:49:27;;;;;;;6.50;3.13;;;;;;;16.94;88.61;101832.06;5006510;28;20029;-68
2023/08/17 02:51:52;;;;;;;6.63;3.03;;;;;;;16.94;88.48;101831.19;5022322;28;20037;-69
2023/08/17 02:54:17;;;;;;;6.28;2.95;;;;;;;16.94;89.25;101833.94;5011079;28;20461;-68
2023/08/17 02:56:43;;;;;;;6.00;3.30;;;;;;;16.92;88.57;101836.78;5025164;28;20048;-66
2023/08/17 02:59:08;;;;;;;8.23;3.20;;;;;;;16.94;88.54;101834.81;5024876;28;20405;-66
2023/08/17 03:01:34;;;;;;;8.10;2.90;;;;;;;16.93;87.97;101837.69;5024887;28;20034;-66
2023/08/17 03:03:59;;;;;;;5.45;3.58;;;;;;;16.90;88.23;101832.44;5022160;28;20080;-66
2023/08/17 03:06:24;;;;;;;4.63;3.30;;;;;;;16.87;88.67;101830.81;5006846;28;20140;-66
2023/08/17 03:08:52;;;;;;;6.40;2.65;;;;;;;16.82;88.18;101833.94;5007053;28;20500;-65
2023/08/17 03:11:17;;;;;;;5.13;2.70;;;;;;;16.77;88.20;101832.56;5006729;28;20080;-67
2023/08/17 03:13:43;;;;;;;6.80;2.65;;;;;;;16.78;87.86;101832.44;5007630;28;20022;-66
2023/08/17 03:16:09;;;;;;;6.43;2.58;;;;;;;16.77;88.33;101835.31;5006161;28;20544;-66
2023/08/17 03:18:36;;;;;;;7.40;3.00;;;;;;;16.73;88.53;101831.94;5026703;28;20036;-66
2023/08/17 03:21:01;;;;;;;4.43;3.00;;;;;;;16.67;89.25;101828.81;4992981;28;20441;-66
2023/08/17 03:23:26;;;;;;;6.05;2.60;;;;;;;16.65;89.04;101831.69;5009279;28;20407;-70
2023/08/17 03:25:53;;;;;;;6.40;2.70;;;;;;;16.63;89.45;101828.19;5014565;28;20422;-67
2023/08/17 03:28:19;;;;;;;4.75;2.63;;;;;;;16.61;88.96;101832.06;5017787;28;20034;-66
2023/08/17 03:30:45;;;;;;;3.22;2.63;;;;;;;16.59;88.83;101826.69;5008969;28;20040;-66
2023/08/17 03:33:10;;;;;;;5.20;2.60;;;;;;;16.61;88.79;101819.22;5008853;28;20066;-66
2023/08/17 03:35:35;;;;;;;7.88;3.05;;;;;;;16.63;88.71;101830.06;5040762;28;20045;-66
2023/08/17 03:38:01;;;;;;;7.40;3.22;;;;;;;16.57;89.07;101829.56;5015358;28;20061;-66
2023/08/17 03:40:27;;;;;;;7.78;3.30;;;;;;;16.50;89.88;101830.19;5028686;28;20067;-67
2023/08/17 03:42:52;;;;;;;5.45;2.92;;;;;;;16.46;89.29;101825.94;5022844;28;20069;-66
2023/08/17 03:45:18;;;;;;;5.20;2.65;;;;;;;16.43;90.14;101827.09;5008999;28;20117;-66
2023/08/17 03:47:44;;;;;;;7.95;2.80;;;;;;;16.40;90.50;101821.81;4991907;28;20125;-66
2023/08/17 03:50:10;;;;;;;7.38;2.80;;;;;;;16.35;90.37;101825.94;5021622;28;20083;-66
2023/08/17 03:52:35;;;;;;;5.38;2.90;;;;;;;16.34;89.85;101822.34;5028275;28;20095;-66
2023/08/17 03:55:01;;;;;;;8.73;3.42;;;;;;;16.32;90.85;101816.09;5027742;28;20152;-67
2023/08/17 03:57:26;;;;;;;7.43;3.40;;;;;;;16.35;90.61;101824.06;5025850;28;20389;-69
2023/08/17 03:59:52;;;;;;;3.92;3.28;;;;;;;16.36;90.40;101830.44;5026613;28;20421;-66
2023/08/17 04:02:17;;;;;;;4.55;2.70;;;;;;;16.39;90.71;101835.69;5027261;28;20025;-68
2023/08/17 04:04:43;;;;;;;6.70;2.80;;;;;;;16.39;90.82;101839.31;5019407;28;20112;-67
2023/08/17 04:07:09;;;;;;;6.55;2.80;;;;;;;16.41;90.12;101844.66;5010110;28;20034;-66
2023/08/17 04:09:34;;;;;;;6.80;3.35;;;;;;;16.42;90.06;101844.56;5008433;28;20029;-70
2023/08/17 04:12:00;;;;;;;6.85;2.75;;;;;;;16.41;90.22;101845.53;5023327;28;20120;-66
2023/08/17 04:14:26;;;;;;;5.50;3.10;;;;;;;16.44;90.63;101847.19;5026814;28;20095;-67
2023/08/17 04:16:52;;;;;;;6.93;3.25;;;;;;;16.42;90.79;101844.56;5026792;28;20044;-66
2023/08/17 04:19:18;;;;;;;9.38;3.30;;;;;;;16.41;91.01;101852.91;5026491;28;20076;-68
2023/08/17 04:21:43;;;;;;;5.95;3.15;;;;;;;16.40;90.91;101852.03;5027868;28;20029;-66
2023/08/17 04:24:09;;;;;;;4.75;2.78;;;;;;;16.40;89.83;101854.78;5029621;28;20087;-67
2023/08/17 04:26:34;;;;;;;7.18;3.25;;;;;;;16.37;90.48;101852.31;5026381;28;20025;-69
2023/08/17 04:29:00;;;;;;;9.23;3.15;;;;;;;16.38;90.65;101855.94;5012816;28;20477;-66
2023/08/17 04:31:27;;;;;;;6.45;2.67;;;;;;;16.36;90.72;101858.78;5007745;28;20087;-65
2023/08/17 04:33:58;;;;;;;5.10;2.63;;;;;;;16.32;90.96;101858.16;5023888;28;20397;-67
2023/08/17 04:36:23;;;;;;;8.52;3.00;;;;;;;16.28;91.06;101859.41;5027229;28;20033;-67
2023/08/17 04:38:49;;;;;;;6.57;3.08;;;;;;;16.31;90.78;101858.28;5028979;28;20052;-66
2023/08/17 04:41:14;;;;;;;6.43;3.05;;;;;;;16.28;90.77;101859.41;5014597;28;20034;-66
2023/08/17 04:43:40;;;;;;;12.07;2.92;;;;;;;16.27;90.47;101852.19;4992171;28;20038;-66
2023/08/17 04:46:05;;;;;;;6.78;2.97;;;;;;;16.29;90.32;101854.78;5008545;28;20033;-66
2023/08/17 04:48:31;;;;;;;5.57;3.70;;;;;;;16.27;90.82;101859.50;5017589;28;20535;-66
2023/08/17 04:50:56;;;;;;;9.38;3.20;;;;;;;16.30;90.12;101857.41;5023403;28;20025;-66
2023/08/17 04:53:22;;;;;;;8.35;3.03;;;;;;;16.28;90.77;101856.66;5021218;28;20099;-67
2023/08/17 04:55:49;;;;;;;6.47;2.92;;;;;;;16.28;90.68;101856.66;5024498;28;20450;-67
2023/08/17 04:58:14;;;;;;;6.95;3.20;;;;;;;16.31;90.93;101850.03;5016079;28;20069;-66
2023/08/17 05:00:39;;;;;;;6.28;3.47;;;;;;;16.33;90.19;101857.16;5025431;28;20083;-67
2023/08/17 05:03:05;;;;;;;8.57;3.10;;;;;;;16.32;90.70;101849.94;5011990;28;20128;-66
2023/08/17 05:05:35;;;;;;;10.05;2.97;;;;;;;16.31;90.45;101850.91;5026441;28;20021;-66
2023/08/17 05:08:04;;;;;;;8.50;2.92;;;;;;;16.27;90.15;101852.19;5025566;28;20060;-66
2023/08/17 05:10:29;;;;;;;6.65;2.83;;;;;;;16.28;90.90;101855.78;5010130;28;20065;-67
2023/08/17 05:12:55;;;;;;;9.23;2.67;;;;;;;16.28;91.18;101851.19;5021025;28;20038;-66
2023/08/17 05:15:21;;;;;;;6.22;2.95;;;;;;;16.33;90.83;101846.19;5018050;28;20033;-66
2023/08/17 05:17:46;;;;;;;5.95;2.80;;;;;;;16.38;89.83;101842.19;5025533;28;20401;-66
2023/08/17 05:20:15;;;;;;;3.58;2.50;;;;;;;16.36;90.02;101850.53;5025183;28;20033;-70
2023/08/17 05:22:41;;;;;;;6.85;2.80;;;;;;;16.39;90.48;101842.06;5026743;28;20041;-67
2023/08/17 05:25:06;;;;;;;7.68;2.90;;;;;;;16.39;90.05;101838.44;5012971;28;20521;-66
2023/08/17 05:27:34;;;;;;;5.60;2.80;;;;;;;16.41;89.51;101847.41;5019023;28;20033;-66
2023/08/17 05:29:59;;;;;;;4.68;2.47;;;;;;;16.43;90.66;101848.19;5017854;28;20041;-67
2023/08/17 05:32:25;;;;;;;4.93;2.90;;;;;;;16.46;90.34;101848.81;5025711;28;20136;-66
2023/08/17 05:34:51;;;;;;;5.60;2.85;;;;;;;16.48;90.64;101840.44;5025234;28;20030;-66
2023/08/17 05:37:17;;;;;;;8.73;3.10;;;;;;;16.51;89.84;101845.69;5026396;28;20456;-66
2023/08/17 05:39:43;;;;;;;9.43;3.75;;;;;;;16.52;90.15;101840.06;5026198;28;20030;-67
2023/08/17 05:42:09;;;;;;;4.88;3.00;;;;;;;16.55;90.62;101836.19;5027250;28;20041;-67
2023/08/17 05:44:35;;;;;;;5.85;2.97;;;;;;;16.58;90.35;101849.69;5008301;28;20105;-66
2023/08/17 05:47:01;;;;;;;6.90;3.50;;;;;;;16.65;89.25;101844.56;5012510;28;20036;-66
2023/08/17 05:49:27;;;;;;;3.88;2.55;;;;;;;16.67;88.93;101848.91;5024623;28;20034;-67
2023/08/17 05:51:52;;;;;;;5.68;3.03;;;;;;;16.71;89.49;101857.78;5027952;28;20038;-67
2023/08/17 05:54:17;;;;;;;4.30;3.08;;;;;;;16.73;89.75;101853.94;5027573;28;20508;-67
2023/08/17 05:56:46;;;;;;;6.38;3.08;;;;;;;16.79;89.32;101858.94;5027138;28;20112;-67
2023/08/17 05:59:12;;;;;;;7.60;3.40;;;;;;;16.87;88.92;101861.03;5026737;28;20073;-66
2023/08/17 06:01:38;;;;;;;5.82;3.20;;;;;;;17.00;88.72;101861.78;5028190;28;20038;-66
2023/08/17 06:04:04;;;;;;;7.38;3.05;;;;;;;17.07;89.53;101860.28;5023294;28;20448;-65
2023/08/17 06:06:29;;;;;;;7.97;3.28;;;;;;;17.15;89.02;101865.09;5027583;28;20091;-67
2023/08/17 06:08:54;;;;;;;8.27;3.17;;;;;;;17.15;87.63;101867.84;5027156;28;20436;-66
2023/08/17 06:11:20;;;;;;;6.05;3.30;;;;;;;17.17;87.35;101868.63;5027127;28;20448;-66
2023/08/17 06:13:45;;;;;;;6.07;3.25;;;;;;;17.30;88.64;101873.97;5013963;28;20065;-66
2023/08/17 06:16:11;;;;;;;8.90;3.10;;;;;;;17.34;87.28;101878.19;5008021;28;20474;-68
2023/08/17 06:18:37;;;;;;;7.57;3.20;;;;;;;17.37;87.49;101869.69;5006969;28;20068;-69
2023/08/17 06:21:02;;;;;;;6.05;2.90;;;;;;;17.43;86.91;101869.16;5008160;28;20490;-68
2023/08/17 06:23:27;;;;;;;6.10;3.47;;;;;;;17.47;86.50;101869.75;5007539;28;20067;-66
2023/08/17 06:25:59;;;;;;;9.43;3.08;;;;;;;17.41;86.68;101867.56;5007594;28;20026;-66
2023/08/17 06:28:25;;;;;;;7.68;3.85;;;;;;;17.31;85.75;101867.47;5006983;28;20076;-67
2023/08/17 06:30:56;;;;;;;9.55;3.63;;;;;;;17.20;87.32;101868.34;5007319;28;20092;-66
2023/08/17 06:33:22;;;;;;;6.13;3.37;;;;;;;17.28;87.20;101871.31;5007315;28;20070;-66
2023/08/17 06:35:49;;;;;;;8.70;3.55;;;;;;;17.33;87.16;101866.31;5007472;28;20030;-66
2023/08/17 06:38:14;;;;;;;7.47;3.53;;;;;;;17.37;85.80;101872.44;5007835;28;20121;-66
2023/08/17 06:40:40;;;;;;;8.75;3.38;;;;;;;17.38;87.19;101876.91;5008208;28;20546;-66
2023/08/17 06:43:05;;;;;;;8.13;3.95;;;;;;;17.36;85.80;101884.44;5006790;28;20492;-67
2023/08/17 06:45:34;;;;;;;5.35;3.40;;;;;;;17.36;86.78;101878.94;5006004;28;20036;-66
2023/08/17 06:47:59;;;;;;;8.00;3.83;;;;;;;17.33;87.03;101880.06;5020256;28;20128;-66
2023/08/17 06:50:26;;;;;;;8.90;3.58;;;;;;;17.45;87.32;101878.16;5011367;28;20032;-66
2023/08/17 06:52:52;;;;;;;8.93;4.07;;;;;;;17.66;85.76;101877.31;5011173;28;20484;-66
2023/08/17 06:55:17;;;;;;;6.07;3.65;;;;;;;17.73;86.41;101878.56;5011195;28;20029;-66
2023/08/17 06:57:43;;;;;;;7.32;3.63;;;;;;;17.80;85.21;101875.16;5010252;28;20046;-67
2023/08/17 07:00:11;;;;;;;5.93;3.70;;;;;;;17.90;86.57;101875.22;5011529;28;20559;-66
2023/08/17 07:02:36;;;;;;;8.60;3.75;;;;;;;17.93;86.68;101879.59;5010264;28;20073;-66
2023/08/17 07:05:01;;;;;;;14.60;4.15;;;;;;;18.01;83.60;101886.19;5020356;28;20688;-66
2023/08/17 07:07:27;;;;;;;10.00;4.10;;;;;;;18.03;83.58;101881.41;5030534;28;20366;-66
2023/08/17 07:09:52;;;;;;;5.57;3.05;;;;;;;18.19;85.58;101883.72;5030500;28;20033;-67
2023/08/17 07:12:19;;;;;;;5.85;3.95;;;;;;;18.20;84.02;101879.06;5025450;28;20256;-66
2023/08/17 07:14:44;;;;;;;6.43;3.67;;;;;;;18.17;85.52;101873.81;5011095;28;20064;-67
2023/08/17 07:17:09;;;;;;;8.32;3.80;;;;;;;18.07;84.12;101871.88;5015356;28;20489;-66
2023/08/17 07:19:35;;;;;;;8.27;3.55;;;;;;;18.07;85.05;101884.78;5010649;28;20549;-67
2023/08/17 07:22:00;;;;;;;10.20;3.30;;;;;;;18.13;84.77;101880.59;5013014;28;20508;-67
2023/08/17 07:24:25;;;;;;;8.35;4.18;;;;;;;18.11;84.67;101875.25;5030268;28;20052;-66
2023/08/17 07:26:51;;;;;;;10.07;3.85;;;;;;;18.14;83.27;101874.06;5016460;28;20045;-67
2023/08/17 07:29:16;;;;;;;8.48;4.35;;;;;;;18.14;83.26;101877.72;5022027;28;20033;-66
2023/08/17 07:31:42;;;;;;;5.53;3.88;;;;;;;18.20;83.92;101879.06;5010894;28;20022;-66
2023/08/17 07:34:07;;;;;;;12.98;4.22;;;;;;;18.29;84.19;101881.00;5013253;28;20037;-66
2023/08/17 07:36:33;;;;;;;6.22;3.33;;;;;;;18.43;84.27;101875.13;5029853;28;20075;-66
2023/08/17 07:38:59;;;;;;;10.85;3.92;;;;;;;18.39;83.04;101876.41;5028634;28;20025;-68
2023/08/17 07:41:25;;;;;;;8.88;4.28;;;;;;;18.35;84.00;101875.81;5029555;28;20607;-67
2023/08/17 07:43:50;;;;;;;9.10;3.75;;;;;;;18.36;83.04;101871.19;5029068;28;20033;-66
2023/08/17 07:46:16;;;;;;;6.75;3.78;;;;;;;18.53;83.08;101872.44;5028486;28;20033;-67
2023/08/17 07:48:41;;;;;;;9.98;4.45;;;;;;;18.50;81.24;101876.31;5010336;28;20044;-67
2023/08/17 07:51:06;;;;;;;11.32;3.75;;;;;;;18.53;82.14;101877.94;5024652;28;20069;-66
2023/08/17 07:53:32;;;;;;;8.95;3.42;;;;;;;18.80;82.93;101883.75;5010089;28;20468;-66
2023/08/17 07:55:57;;;;;;;10.02;4.15;;;;;;;19.16;82.40;101878.63;5009857;28;20343;-66
2023/08/17 07:58:22;;;;;;;8.45;3.97;;;;;;;19.38;78.85;101888.53;5016616;28;20115;-66
2023/08/17 08:00:48;;;;;;;6.15;3.72;;;;;;;19.34;79.35;101884.31;5029466;28;20037;-67
2023/08/17 08:03:14;;;;;;;9.45;3.40;;;;;;;19.33;79.02;101886.22;5028575;28;20400;-66
2023/08/17 08:05:39;;;;;;;8.02;3.80;;;;;;;19.36;81.21;101890.59;5028866;28;20037;-67
2023/08/17 08:08:05;;;;;;;5.32;3.50;;;;;;;19.49;78.94;101896.72;5029319;28;20042;-66
2023/08/17 08:10:30;;;;;;;9.25;3.55;;;;;;;19.54;79.76;101888.00;5015838;28;20095;-67
2023/08/17 08:12:56;;;;;;;9.23;3.60;;;;;;;19.57;78.77;101894.09;5009224;28;20037;-67
2023/08/17 08:15:21;;;;;;;7.65;3.55;;;;;;;19.59;78.36;101893.97;5009680;28;20432;-66
2023/08/17 08:17:47;;;;;;;8.52;3.75;;;;;;;19.42;76.59;101886.38;5023435;28;20069;-66
2023/08/17 08:20:12;;;;;;;5.28;3.13;;;;;;;19.52;80.52;101885.38;5027383;28;20073;-67
2023/08/17 08:22:37;;;;;;;10.18;3.90;;;;;;;19.62;77.84;101885.41;5009736;28;20501;-66
2023/08/17 08:25:03;;;;;;;7.38;3.38;;;;;;;19.72;77.68;101893.69;5009740;28;20448;-66
2023/08/17 08:27:28;;;;;;;8.63;4.22;;;;;;;19.65;77.59;101889.78;5007350;28;20042;-66
2023/08/17 08:29:54;;;;;;;6.22;3.90;;;;;;;19.69;78.02;101883.81;5009443;28;20454;-66
2023/08/17 08:32:19;;;;;;;7.88;4.07;;;;;;;19.65;78.36;101890.66;5007703;28;20175;-66
2023/08/17 08:34:44;;;;;;;9.43;4.15;;;;;;;19.58;78.18;101897.72;5009374;28;20092;-67
2023/08/17 08:37:10;;;;;;;8.95;4.20;;;;;;;19.42;77.30;101887.25;5009630;28;20034;-67
2023/08/17 08:39:52;;;;;;;6.97;3.60;;;;;;;19.47;79.38;101886.81;5009336;28;20053;-67
2023/08/17 08:42:18;;;;;;;8.90;3.88;;;;;;;19.47;77.69;101893.22;5008471;28;20049;-66
2023/08/17 08:44:44;;;;;;;5.18;3.60;;;;;;;19.48;78.97;101892.19;5027487;28;20034;-66
2023/08/17 08:47:11;;;;;;;7.57;3.85;;;;;;;19.42;78.29;101895.53;5027814;28;20108;-66
2023/08/17 08:49:39;;;;;;;13.50;4.03;;;;;;;19.30;78.94;101889.25;5025928;28;20589;-66
2023/08/17 08:52:07;;;;;;;7.80;3.83;;;;;;;19.22;79.88;101888.25;5028555;28;20477;-67
2023/08/17 08:54:36;;;;;;;17.83;4.63;;;;;;;19.21;80.38;101879.09;5028590;28;20063;-68
2023/08/17 08:57:06;;;;;;;7.13;3.78;;;;;;;19.29;80.18;101883.88;5027947;28;20496;-66
2023/08/17 08:59:33;;;;;;;5.90;3.63;;;;;;;19.30;80.20;101883.72;5009357;28;20414;-66
2023/08/17 09:01:59;;;;;;;6.93;3.97;;;;;;;19.26;79.19;101876.78;5017235;28;20386;-66
2023/08/17 09:04:25;;;;;;;7.30;3.92;;;;;;;19.22;78.97;101877.22;5022637;28;20037;-66
2023/08/17 09:06:51;;;;;;;8.70;3.70;;;;;;;19.25;81.72;101872.25;5008338;28;20397;-66
2023/08/17 09:09:17;;;;;;;7.93;3.88;;;;;;;19.33;80.04;101871.56;5013390;28;20045;-66
2023/08/17 09:11:43;;;;;;;8.38;3.50;;;;;;;19.27;80.10;101873.00;5027917;28;20049;-68
2023/08/17 09:14:09;;;;;;;11.88;4.70;;;;;;;19.28;79.29;101869.22;5012525;28;20481;-66
2023/08/17 09:16:34;;;;;;;8.90;3.75;;;;;;;19.32;80.35;101864.28;5012558;28;20037;-66
2023/08/17 09:19:00;;;;;;;7.75;4.13;;;;;;;19.43;79.20;101872.44;5014770;28;21425;-66
2023/08/17 09:21:26;;;;;;;8.43;4.43;;;;;;;19.44;78.42;101876.91;5017503;28;20432;-66
2023/08/17 09:23:53;;;;;;;14.05;4.13;;;;;;;19.39;78.36;101870.97;5027857;28;20045;-67
2023/08/17 09:26:22;;;;;;;9.73;3.95;;;;;;;19.33;79.79;101871.56;5021799;28;20022;-67
2023/08/17 09:28:47;;;;;;;9.38;4.50;;;;;;;19.17;78.89;101874.88;5019467;28;20469;-66
2023/08/17 09:31:12;;;;;;;11.60;4.35;;;;;;;19.13;81.33;101859.63;5027706;28;20041;-69
2023/08/17 09:33:38;;;;;;;12.75;3.97;;;;;;;19.16;80.18;101864.81;5028119;28;20057;-66
2023/08/17 09:36:03;;;;;;;6.28;4.20;;;;;;;19.14;79.35;101866.00;5008063;28;20470;-66
2023/08/17 09:38:29;;;;;;;9.30;4.18;;;;;;;19.27;81.04;101870.25;5010532;28;20112;-65
2023/08/17 09:40:55;;;;;;;5.93;4.50;;;;;;;19.32;79.02;101875.34;5008204;28;20488;-66
2023/08/17 09:43:20;;;;;;;8.40;4.18;;;;;;;19.33;80.58;101871.56;5014396;28;20183;-66
2023/08/17 09:45:49;;;;;;;12.60;4.82;;;;;;;19.48;80.83;101870.09;5027591;28;20060;-67
2023/08/17 09:48:19;;;;;;;12.98;5.25;;;;;;;19.48;80.11;101864.59;5026855;28;20133;-67
2023/08/17 09:50:46;;;;;;;11.65;5.47;;;;;;;19.50;79.13;101867.22;5010491;28;20076;-66
2023/08/17 09:53:16;;;;;;;12.52;5.97;;;;;;;19.55;79.30;101859.38;5008412;28;20477;-66
2023/08/17 09:55:43;;;;;;;14.27;5.90;;;;;;;19.41;80.61;101868.94;5008668;28;20049;-66
2023/08/17 09:58:08;;;;;;;10.05;5.47;;;;;;;19.37;78.46;101851.81;5007849;28;20081;-66
2023/08/17 10:00:34;;;;;;;15.50;6.82;;;;;;;19.26;80.66;101851.94;5006414;28;20418;-67
2023/08/17 10:03:02;;;;;;;9.82;6.13;;;;;;;19.34;80.89;101852.06;5007374;28;20417;-66
2023/08/17 10:05:31;;;;;;;16.13;5.75;;;;;;;19.34;80.19;101856.72;5007846;28;20034;-67
2023/08/17 10:07:59;;;;;;;12.80;5.55;;;;;;;19.46;80.47;101852.81;5007564;28;20117;-66
2023/08/17 10:10:26;;;;;;;12.32;5.53;;;;;;;19.49;80.11;101860.84;5007810;28;20091;-68
2023/08/17 10:13:08;;;;;;;9.20;5.72;;;;;;;19.32;79.56;101853.25;5022285;28;20038;-66
2023/08/17 10:15:36;;;;;;;13.90;6.38;;;;;;;19.28;80.75;101844.38;5027493;28;20060;-67
2023/08/17 10:18:11;;;;;;;10.35;6.28;;;;;;;19.31;80.42;101841.34;5017640;28;20041;-66
2023/08/17 10:20:41;;;;;;;11.45;6.20;;;;;;;19.33;80.83;101844.81;5011757;28;20076;-66
2023/08/17 10:23:16;;;;;;;15.15;5.90;;;;;;;19.27;80.02;101834.38;5014180;28;20505;-66
2023/08/17 10:25:43;;;;;;;10.48;6.28;;;;;;;19.25;81.05;101838.28;5028809;28;20037;-66
2023/08/17 10:28:12;;;;;;;10.05;6.38;;;;;;;19.13;81.46;101833.91;5013642;28;20095;-66
2023/08/17 10:30:39;;;;;;;14.00;7.00;;;;;;;19.08;81.10;101834.34;5010713;28;20200;-66
2023/08/17 10:33:05;;;;;;;9.52;6.60;;;;;;;19.06;82.00;101828.09;5009934;28;20033;-66
2023/08/17 10:35:33;;;;;;;14.02;7.05;;;;;;;19.07;82.41;101827.06;5019677;28;20361;-67
2023/08/17 10:37:59;;;;;;;11.32;5.75;;;;;;;19.28;83.52;101827.81;5031465;28;20262;-66
2023/08/17 10:40:29;;;;;;;12.30;5.85;;;;;;;19.62;82.50;101828.28;5046660;28;20354;-66
2023/08/17 10:42:56;;;;;;;11.45;5.88;;;;;;;19.71;81.31;101833.97;5025470;28;20556;-69
2023/08/17 10:45:31;;;;;;;9.85;6.20;;;;;;;19.70;79.90;101838.63;5011407;28;20169;-66
2023/08/17 10:48:09;;;;;;;11.63;6.47;;;;;;;19.71;80.95;101834.84;5023839;28;20045;-66
2023/08/17 10:50:37;;;;;;;15.50;6.28;;;;;;;19.64;81.72;101833.69;5029635;28;20133;-66
2023/08/17 10:53:11;;;;;;;13.48;6.80;;;;;;;19.66;80.73;101837.16;5030658;28;20109;-67
2023/08/17 10:55:37;;;;;;;12.45;6.57;;;;;;;19.63;80.28;101834.69;5017042;28;20049;-66
2023/08/17 10:58:04;;;;;;;16.33;6.90;;;;;;;19.68;80.82;101837.91;5017149;28;20060;-66
2023/08/17 11:00:36;;;;;;;12.75;6.65;;;;;;;19.73;80.23;101837.47;5011080;28;20155;-67
2023/08/17 11:03:11;;;;;;;12.45;6.38;;;;;;;19.59;81.10;101828.56;5010329;28;20485;-67
2023/08/17 11:05:44;;;;;;;13.32;6.10;;;;;;;19.53;81.01;101833.78;5010873;28;20037;-67
2023/08/17 11:08:19;;;;;;;13.60;6.50;;;;;;;19.38;80.83;101838.88;5011256;28;20041;-67
2023/08/17 11:10:58;;;;;;;14.10;6.30;;;;;;;19.42;81.25;101828.41;5010964;28;20117;-66
2023/08/17 11:13:26;;;;;;;15.25;7.05;;;;;;;19.44;81.99;101832.75;5014650;28;20046;-66
2023/08/17 11:15:52;;;;;;;15.95;7.60;;;;;;;19.38;82.58;101838.88;5010842;28;20042;-66
2023/08/17 11:18:17;;;;;;;16.15;7.57;;;;;;;19.46;83.07;101847.31;5010005;28;20056;-66
2023/08/17 11:20:43;;;;;;;11.13;6.22;;;;;;;19.56;82.68;101845.41;5022264;28;20654;-69
2023/08/17 11:23:09;;;;;;;14.63;7.55;;;;;;;19.60;81.42;101848.81;5022339;28;20040;-66